createdAt,value
2023-04-29T00:01:32.524Z,35.30
2023-04-29T00:06:26.328Z,30.10
2023-04-29T00:08:53.389Z,32.35
2023-04-29T00:11:20.535Z,29.25
2023-04-29T00:13:47.420Z,30.17
2023-04-29T00:16:17.203Z,27.25
2023-04-29T00:18:44.075Z,28.27
2023-04-29T00:21:11.010Z,30.45
2023-04-29T00:23:37.947Z,30.73
2023-04-29T00:26:04.796Z,27.17
2023-04-29T00:28:31.772Z,29.83
2023-04-29T00:30:58.690Z,26.42
2023-04-29T00:33:25.681Z,28.40
2023-04-29T00:35:52.619Z,27.08
2023-04-29T00:38:19.470Z,26.80
2023-04-29T00:40:46.514Z,25.00
2023-04-29T00:43:13.401Z,30.90
2023-04-29T00:45:40.538Z,26.85
2023-04-29T00:48:08.079Z,28.88
2023-04-29T00:50:36.726Z,27.27
2023-04-29T00:53:03.995Z,25.00
2023-04-29T00:55:32.866Z,27.45
2023-04-29T00:57:59.758Z,29.65
2023-04-29T01:00:27.613Z,28.50
2023-04-29T01:02:57.448Z,26.95
2023-04-29T01:05:25.150Z,25.92
2023-04-29T01:08:14.960Z,28.75
2023-04-29T01:10:53.649Z,27.83
2023-04-29T01:13:34.048Z,25.88
2023-04-29T01:16:13.110Z,35.22
2023-04-29T01:18:46.214Z,25.85
2023-04-29T01:21:13.135Z,37.60
2023-04-29T01:23:40.051Z,30.90
2023-04-29T01:26:08.344Z,30.20
2023-04-29T01:28:47.846Z,35.53
2023-04-29T01:31:42.134Z,37.97
2023-04-29T01:34:17.218Z,30.23
2023-04-29T01:37:03.471Z,30.40
2023-04-29T01:39:58.477Z,35.30
2023-04-29T01:42:36.669Z,35.65
2023-04-29T01:45:08.400Z,32.85
2023-04-29T01:47:37.374Z,32.58
2023-04-29T01:50:04.528Z,29.83
2023-04-29T01:52:31.407Z,39.85
2023-04-29T01:54:58.275Z,32.33
2023-04-29T01:57:25.146Z,34.35
2023-04-29T01:59:52.797Z,35.05
2023-04-29T02:02:21.636Z,32.90
2023-04-29T02:04:50.707Z,33.72
2023-04-29T02:07:17.752Z,30.33
2023-04-29T02:09:44.770Z,33.78
2023-04-29T02:12:11.650Z,29.00
2023-04-29T02:14:38.726Z,31.42
2023-04-29T02:17:05.748Z,27.58
2023-04-29T02:19:32.606Z,29.50
2023-04-29T02:21:59.547Z,28.65
2023-04-29T02:24:26.454Z,33.17
2023-04-29T02:26:53.500Z,34.45
2023-04-29T02:29:20.341Z,30.30
2023-04-29T02:31:47.299Z,29.92
2023-04-29T02:34:14.186Z,29.42
2023-04-29T02:36:40.989Z,29.02
2023-04-29T02:39:07.941Z,32.38
2023-04-29T02:41:34.906Z,29.70
2023-04-29T02:44:01.807Z,34.58
2023-04-29T02:46:28.878Z,28.80
2023-04-29T02:48:55.921Z,33.13
2023-04-29T02:51:22.752Z,33.83
2023-04-29T02:53:49.614Z,27.10
2023-04-29T02:56:16.489Z,30.67
2023-04-29T02:58:43.590Z,36.40
2023-04-29T03:01:10.869Z,29.48
2023-04-29T03:03:37.903Z,30.50
2023-04-29T03:06:04.921Z,28.63
2023-04-29T03:08:31.798Z,32.17
2023-04-29T03:10:58.806Z,32.38
2023-04-29T03:13:25.759Z,32.83
2023-04-29T03:15:52.709Z,31.10
2023-04-29T03:18:19.670Z,30.38
2023-04-29T03:20:46.519Z,27.17
2023-04-29T03:23:13.475Z,32.88
2023-04-29T03:25:40.789Z,30.80
2023-04-29T03:28:07.873Z,28.52
2023-04-29T03:30:34.794Z,30.13
2023-04-29T03:33:01.748Z,31.55
2023-04-29T03:35:28.752Z,26.52
2023-04-29T03:37:55.675Z,27.77
2023-04-29T03:40:22.616Z,27.08
2023-04-29T03:42:49.620Z,27.05
2023-04-29T03:45:18.327Z,29.35
2023-04-29T03:47:45.385Z,27.67
2023-04-29T03:50:12.337Z,27.40
2023-04-29T03:52:39.521Z,30.50
2023-04-29T03:55:07.045Z,27.65
2023-04-29T03:57:33.937Z,27.15
2023-04-29T04:00:00.936Z,29.27
2023-04-29T04:02:28.566Z,37.63
2023-04-29T04:04:55.772Z,32.60
2023-04-29T04:07:22.796Z,26.60
2023-04-29T04:09:49.673Z,31.20
2023-04-29T04:12:16.697Z,27.40
2023-04-29T04:14:43.543Z,28.02
2023-04-29T04:17:10.692Z,34.95
2023-04-29T04:19:37.505Z,27.25
2023-04-29T04:22:04.842Z,26.95
2023-04-29T04:24:31.813Z,26.67
2023-04-29T04:26:58.696Z,27.38
2023-04-29T04:29:25.584Z,28.13
2023-04-29T04:31:52.511Z,27.73
2023-04-29T04:34:19.725Z,25.90
2023-04-29T04:36:46.956Z,27.67
2023-04-29T04:39:13.797Z,26.05
2023-04-29T04:41:40.657Z,29.75
2023-04-29T04:44:07.761Z,26.83
2023-04-29T04:46:35.152Z,28.52
2023-04-29T04:49:03.131Z,27.38
2023-04-29T04:51:30.029Z,25.98
2023-04-29T04:53:56.947Z,25.30
2023-04-29T04:56:23.824Z,22.42
2023-04-29T04:58:50.666Z,23.60
2023-04-29T05:01:17.591Z,24.92
2023-04-29T05:03:44.733Z,21.95
2023-04-29T05:06:11.722Z,20.58
2023-04-29T05:08:38.570Z,20.80
2023-04-29T05:11:05.492Z,27.92
2023-04-29T05:13:33.443Z,21.60
2023-04-29T05:16:05.797Z,20.90
2023-04-29T05:18:33.320Z,19.98
2023-04-29T05:21:00.458Z,21.40
2023-04-29T05:23:27.955Z,24.02
2023-04-29T05:25:54.762Z,18.88
2023-04-29T05:28:21.756Z,18.83
2023-04-29T05:30:52.064Z,19.23
2023-04-29T05:33:19.093Z,21.48
2023-04-29T05:35:46.323Z,22.40
2023-04-29T05:38:13.272Z,20.25
2023-04-29T05:40:40.584Z,21.63
2023-04-29T05:43:07.445Z,21.38
2023-04-29T05:45:34.286Z,18.65
2023-04-29T05:48:01.215Z,25.20
2023-04-29T05:50:28.134Z,19.58
2023-04-29T05:52:56.507Z,22.58
2023-04-29T05:55:23.584Z,20.25
2023-04-29T05:57:50.568Z,18.90
2023-04-29T06:00:17.411Z,22.98
2023-04-29T06:02:57.339Z,18.77
2023-04-29T06:05:25.694Z,18.75
2023-04-29T06:07:52.811Z,18.90
2023-04-29T06:10:19.782Z,22.90
2023-04-29T06:12:47.388Z,20.00
2023-04-29T06:15:14.281Z,16.45
2023-04-29T06:17:41.144Z,16.95
2023-04-29T06:20:09.359Z,17.95
2023-04-29T06:22:36.547Z,18.77
2023-04-29T06:25:03.477Z,18.77
2023-04-29T06:27:30.608Z,15.75
2023-04-29T06:29:58.001Z,16.20
2023-04-29T06:32:24.922Z,16.83
2023-04-29T06:34:52.124Z,16.13
2023-04-29T06:37:18.985Z,15.32
2023-04-29T06:39:45.845Z,16.20
2023-04-29T06:42:12.843Z,18.77
2023-04-29T06:44:39.699Z,14.05
2023-04-29T06:47:06.701Z,19.20
2023-04-29T06:49:34.254Z,17.77
2023-04-29T06:52:02.296Z,15.43
2023-04-29T06:54:29.528Z,19.45
2023-04-29T06:56:56.363Z,18.70
2023-04-29T06:59:23.419Z,18.50
2023-04-29T07:01:53.010Z,18.63
2023-04-29T07:04:20.372Z,18.13
2023-04-29T07:06:47.422Z,16.88
2023-04-29T07:09:14.488Z,17.00
2023-04-29T07:11:42.124Z,23.80
2023-04-29T07:14:09.064Z,19.00
2023-04-29T07:16:36.154Z,17.58
2023-04-29T07:19:03.436Z,17.48
2023-04-29T07:21:31.361Z,17.92
2023-04-29T07:24:00.829Z,21.20
2023-04-29T07:28:54.841Z,17.75
2023-04-29T07:31:22.553Z,17.13
2023-04-29T07:33:49.556Z,16.75
2023-04-29T07:36:16.504Z,18.90
2023-04-29T07:38:43.369Z,17.58
2023-04-29T07:41:10.420Z,16.60
2023-04-29T07:43:37.304Z,20.17
2023-04-29T07:46:04.326Z,15.30
2023-04-29T07:48:31.254Z,15.90
2023-04-29T07:50:58.110Z,18.27
2023-04-29T07:53:24.959Z,15.88
2023-04-29T07:55:51.829Z,15.52
2023-04-29T07:58:18.783Z,15.60
2023-04-29T08:00:47.301Z,19.83
2023-04-29T08:03:14.477Z,20.02
2023-04-29T08:05:42.647Z,13.75
2023-04-29T08:08:09.606Z,13.23
2023-04-29T08:10:40.986Z,15.68
2023-04-29T08:13:08.295Z,14.93
2023-04-29T08:15:35.445Z,15.05
2023-04-29T08:18:02.358Z,14.82
2023-04-29T08:20:29.291Z,13.85
2023-04-29T08:22:58.298Z,16.52
2023-04-29T08:25:27.248Z,13.00
2023-04-29T08:27:54.128Z,13.75
2023-04-29T08:30:21.196Z,13.57
2023-04-29T08:32:48.160Z,14.43
2023-04-29T08:35:15.302Z,14.43
2023-04-29T08:37:42.540Z,13.35
2023-04-29T08:40:10.002Z,12.52
2023-04-29T08:42:37.702Z,13.73
2023-04-29T08:45:05.303Z,13.10
2023-04-29T08:47:33.643Z,12.60
2023-04-29T08:50:04.505Z,19.17
2023-04-29T08:52:32.704Z,26.02
2023-04-29T08:55:02.574Z,20.05
2023-04-29T08:57:31.254Z,22.88
2023-04-29T09:00:01.222Z,19.48
2023-04-29T09:02:29.156Z,19.00
2023-04-29T09:04:59.380Z,14.68
2023-04-29T09:07:28.332Z,13.18
2023-04-29T09:09:55.713Z,11.77
2023-04-29T09:12:22.654Z,11.40
2023-04-29T09:14:52.380Z,11.90
2023-04-29T09:17:20.418Z,12.57
2023-04-29T09:19:47.371Z,11.48
2023-04-29T09:22:14.283Z,13.50
2023-04-29T09:24:41.164Z,12.57
2023-04-29T09:27:09.226Z,14.77
2023-04-29T09:29:38.598Z,15.82
2023-04-29T09:34:46.156Z,20.23
2023-04-29T09:37:28.018Z,16.25
2023-04-29T09:39:55.555Z,15.70
2023-04-29T09:42:22.583Z,13.38
2023-04-29T09:44:49.570Z,14.45
2023-04-29T09:47:17.399Z,12.77
2023-04-29T09:49:50.036Z,11.55
2023-04-29T09:52:18.352Z,13.50
2023-04-29T09:54:45.702Z,12.32
2023-04-29T09:57:15.837Z,10.40
2023-04-29T09:59:43.725Z,10.88
2023-04-29T10:02:18.250Z,11.15
2023-04-29T10:04:47.043Z,9.90
2023-04-29T10:07:18.205Z,12.40
2023-04-29T10:09:48.858Z,11.13
2023-04-29T10:12:21.188Z,9.38
2023-04-29T10:15:19.206Z,12.40
2023-04-29T10:17:47.775Z,11.65
2023-04-29T10:20:21.979Z,13.53
2023-04-29T10:22:50.440Z,9.00
2023-04-29T10:25:19.927Z,9.77
2023-04-29T10:30:16.533Z,11.93
2023-04-29T10:32:50.984Z,10.88
2023-04-29T10:35:22.806Z,10.00
2023-04-29T10:37:50.505Z,10.02
2023-04-29T10:40:22.946Z,10.20
2023-04-29T10:42:54.463Z,8.23
2023-04-29T10:45:27.651Z,9.38
2023-04-29T10:48:06.802Z,8.70
2023-04-29T10:50:45.742Z,10.00
2023-04-29T10:53:14.215Z,8.80
2023-04-29T10:55:42.059Z,8.80
2023-04-29T10:58:46.788Z,9.80
2023-04-29T11:01:17.932Z,9.10
2023-04-29T11:04:02.216Z,7.80
2023-04-29T11:06:37.551Z,7.88
2023-04-29T11:09:12.593Z,9.25
2023-04-29T11:11:54.042Z,8.82
2023-04-29T11:14:39.536Z,12.02
2023-04-29T11:17:17.119Z,8.13
2023-04-29T11:19:46.736Z,8.20
2023-04-29T11:22:24.914Z,9.52
2023-04-29T11:24:57.669Z,10.40
2023-04-29T11:27:26.966Z,9.88
2023-04-29T11:29:59.069Z,10.65
2023-04-29T11:32:31.068Z,8.93
2023-04-29T11:35:14.620Z,10.48
2023-04-29T11:37:43.065Z,7.13
2023-04-29T11:40:11.563Z,8.77
2023-04-29T11:42:46.644Z,8.70
2023-04-29T11:45:15.154Z,8.93
2023-04-29T11:47:46.843Z,7.03
2023-04-29T11:50:17.041Z,8.82
2023-04-29T11:52:44.844Z,8.93
2023-04-29T11:55:12.701Z,8.18
2023-04-29T11:57:40.591Z,9.20
2023-04-29T12:00:14.270Z,8.63
2023-04-29T12:02:46.171Z,8.00
2023-04-29T12:05:16.369Z,8.10
2023-04-29T12:07:44.033Z,6.38
2023-04-29T12:10:12.016Z,7.35
2023-04-29T12:12:47.458Z,7.97
2023-04-29T12:15:14.980Z,7.00
2023-04-29T12:17:43.561Z,7.53
2023-04-29T12:20:11.278Z,7.40
2023-04-29T12:22:38.243Z,8.68
2023-04-29T12:25:05.716Z,7.47
2023-04-29T12:27:34.542Z,6.15
2023-04-29T12:30:01.611Z,6.55
2023-04-29T12:32:28.561Z,7.32
2023-04-29T12:34:55.976Z,10.32
2023-04-29T12:37:26.272Z,7.35
2023-04-29T12:39:55.305Z,7.55
2023-04-29T12:42:22.139Z,5.75
2023-04-29T12:44:50.626Z,6.40
2023-04-29T12:47:17.693Z,7.68
2023-04-29T12:49:46.414Z,7.85
2023-04-29T12:52:13.575Z,5.57
2023-04-29T12:54:44.248Z,7.25
2023-04-29T12:57:12.458Z,6.78
2023-04-29T12:59:41.274Z,7.10
2023-04-29T13:02:08.512Z,7.57
2023-04-29T13:04:35.893Z,6.10
2023-04-29T13:07:04.311Z,6.35
2023-04-29T13:09:31.461Z,6.20
2023-04-29T13:11:59.606Z,6.00
2023-04-29T13:14:27.055Z,6.67
2023-04-29T13:16:54.135Z,6.78
2023-04-29T13:19:32.217Z,6.20
2023-04-29T13:22:08.888Z,5.60
2023-04-29T13:24:36.816Z,6.03
2023-04-29T13:27:04.126Z,6.85
2023-04-29T13:29:31.225Z,6.30
2023-04-29T13:31:59.511Z,7.20
2023-04-29T13:34:26.514Z,4.93
2023-04-29T13:36:53.436Z,7.05
2023-04-29T13:39:23.044Z,5.03
2023-04-29T13:41:50.249Z,5.28
2023-04-29T13:44:27.284Z,5.10
2023-04-29T13:47:01.719Z,3.95
2023-04-29T13:50:03.312Z,7.13
2023-04-29T13:59:52.611Z,5.63
2023-04-29T14:04:50.095Z,5.88
2023-04-29T14:07:17.463Z,4.78
2023-04-29T14:09:44.389Z,3.92
2023-04-29T14:12:11.644Z,3.42
2023-04-29T14:14:38.531Z,4.00
2023-04-29T14:17:05.648Z,4.03
2023-04-29T14:19:32.550Z,4.43
2023-04-29T14:21:59.530Z,4.35
2023-04-29T14:24:26.431Z,3.28
2023-04-29T14:26:53.547Z,4.07
2023-04-29T14:29:20.830Z,4.75
2023-04-29T14:31:47.706Z,4.70
2023-04-29T14:34:14.671Z,3.30
2023-04-29T14:36:41.583Z,5.53
2023-04-29T14:39:08.568Z,3.90
2023-04-29T14:41:35.503Z,4.95
2023-04-29T14:44:02.370Z,3.90
2023-04-29T14:46:29.529Z,4.75
2023-04-29T14:48:56.536Z,4.80
2023-04-29T14:51:23.499Z,4.50
2023-04-29T14:53:53.533Z,5.10
2023-04-29T14:56:20.446Z,3.28
2023-04-29T14:58:47.321Z,4.07
2023-04-29T15:01:14.201Z,5.28
2023-04-29T15:03:44.002Z,3.53
2023-04-29T15:06:12.390Z,2.85
2023-04-29T15:08:39.529Z,3.67
2023-04-29T15:11:06.505Z,3.35
2023-04-29T15:13:33.456Z,2.45
2023-04-29T15:16:00.618Z,2.65
2023-04-29T15:18:27.663Z,5.15
2023-04-29T15:20:54.516Z,4.55
2023-04-29T15:23:21.477Z,4.50
2023-04-29T15:25:48.557Z,3.60
2023-04-29T15:28:15.678Z,2.90
2023-04-29T15:30:42.603Z,2.53
2023-04-29T15:33:09.653Z,3.42
2023-04-29T15:35:36.877Z,3.83
2023-04-29T15:38:03.742Z,3.25
2023-04-29T15:40:30.731Z,5.07
2023-04-29T15:42:57.735Z,3.75
2023-04-29T15:45:24.956Z,5.18
2023-04-29T15:47:51.954Z,5.10
2023-04-29T15:50:18.935Z,3.35
2023-04-29T15:52:45.954Z,4.35
2023-04-29T15:55:13.030Z,3.58
2023-04-29T15:57:41.610Z,3.88
2023-04-29T16:00:09.023Z,5.22
2023-04-29T16:02:36.153Z,4.03
2023-04-29T16:05:03.645Z,5.38
2023-04-29T16:07:31.178Z,5.82
2023-04-29T16:09:58.143Z,8.68
2023-04-29T16:12:25.190Z,5.47
2023-04-29T16:14:52.250Z,5.32
2023-04-29T16:17:19.794Z,8.35
2023-04-29T16:19:46.726Z,7.35
2023-04-29T16:22:13.647Z,5.25
2023-04-29T16:24:40.670Z,7.40
2023-04-29T16:27:07.597Z,5.72
2023-04-29T16:29:34.529Z,10.15
2023-04-29T16:32:01.401Z,6.07
2023-04-29T16:34:28.335Z,5.53
2023-04-29T16:36:55.413Z,5.25
2023-04-29T16:39:22.257Z,8.20
2023-04-29T16:41:49.125Z,4.75
2023-04-29T16:44:16.103Z,5.32
2023-04-29T16:46:43.081Z,5.22
2023-04-29T16:49:10.040Z,6.45
2023-04-29T16:51:37.082Z,4.30
2023-04-29T16:54:04.094Z,11.52
2023-04-29T16:56:31.317Z,5.43
2023-04-29T16:58:58.245Z,6.78
2023-04-29T17:01:25.138Z,6.63
2023-04-29T17:03:52.164Z,5.30
2023-04-29T17:06:19.337Z,5.85
2023-04-29T17:08:47.517Z,5.43
2023-04-29T17:11:16.848Z,4.68
2023-04-29T17:13:44.957Z,4.38
2023-04-29T17:16:14.019Z,6.80
2023-04-29T17:18:41.679Z,4.97
2023-04-29T17:21:08.931Z,5.07
2023-04-29T17:23:36.211Z,6.80
2023-04-29T17:26:04.255Z,4.90
2023-04-29T17:28:31.249Z,5.63
2023-04-29T17:31:01.050Z,3.40
2023-04-29T17:33:34.144Z,4.85
2023-04-29T17:36:05.920Z,5.50
2023-04-29T17:38:33.383Z,5.20
2023-04-29T17:41:00.721Z,4.63
2023-04-29T17:43:27.851Z,4.20
2023-04-29T17:45:57.842Z,4.95
2023-04-29T17:48:24.711Z,4.20
2023-04-29T17:50:51.557Z,7.78
2023-04-29T17:53:18.712Z,3.80
2023-04-29T17:55:46.247Z,4.68
2023-04-29T17:58:13.213Z,3.95
2023-04-29T18:00:41.749Z,3.97
2023-04-29T18:03:08.985Z,3.85
2023-04-29T18:05:35.965Z,4.57
2023-04-29T18:08:02.952Z,4.80
2023-04-29T18:10:29.960Z,4.80
2023-04-29T18:12:56.839Z,5.28
2023-04-29T18:15:23.747Z,4.70
2023-04-29T18:17:51.091Z,5.88
2023-04-29T18:20:18.185Z,3.95
2023-04-29T18:22:46.385Z,3.85
2023-04-29T18:25:13.348Z,7.43
2023-04-29T18:27:40.274Z,5.25
2023-04-29T18:30:07.992Z,5.22
2023-04-29T18:32:35.313Z,4.05
2023-04-29T18:35:02.285Z,5.13
2023-04-29T18:37:29.213Z,4.30
2023-04-29T18:39:56.341Z,3.97
2023-04-29T18:42:23.490Z,3.60
2023-04-29T18:44:51.399Z,4.63
2023-04-29T18:47:18.524Z,4.13
2023-04-29T18:49:46.058Z,5.03
2023-04-29T18:52:12.995Z,5.03
2023-04-29T18:54:39.920Z,5.15
2023-04-29T18:57:06.967Z,7.15
2023-04-29T18:59:35.960Z,8.88
2023-04-29T19:02:04.290Z,4.40
2023-04-29T19:04:31.239Z,4.27
2023-04-29T19:07:00.178Z,5.82
2023-04-29T19:09:28.104Z,4.78
2023-04-29T19:11:55.231Z,4.95
2023-04-29T19:14:22.127Z,4.15
2023-04-29T19:16:49.004Z,5.30
2023-04-29T19:19:16.396Z,4.22
2023-04-29T19:21:44.412Z,3.80
2023-04-29T19:24:11.657Z,4.10
2023-04-29T19:26:40.134Z,4.97
2023-04-29T19:29:07.333Z,7.22
2023-04-29T19:31:34.280Z,5.32
2023-04-29T19:34:01.418Z,5.45
2023-04-29T19:36:28.400Z,5.57
2023-04-29T19:38:55.370Z,4.60
2023-04-29T19:41:22.287Z,3.88
2023-04-29T19:43:49.308Z,6.13
2023-04-29T19:46:16.276Z,5.13
2023-04-29T19:48:43.246Z,4.78
2023-04-29T19:51:10.234Z,3.65
2023-04-29T19:53:38.150Z,4.07
2023-04-29T19:56:05.483Z,4.65
2023-04-29T19:58:33.049Z,3.88
2023-04-29T20:01:00.068Z,3.65
2023-04-29T20:03:27.266Z,4.30
2023-04-29T20:05:54.924Z,3.72
2023-04-29T20:08:21.908Z,3.72
2023-04-29T20:10:48.815Z,4.80
2023-04-29T20:13:15.787Z,4.72
2023-04-29T20:15:42.763Z,5.15
2023-04-29T20:18:09.774Z,3.45
2023-04-29T20:20:36.732Z,4.35
2023-04-29T20:23:03.655Z,4.00
2023-04-29T20:25:30.759Z,3.92
2023-04-29T20:27:57.774Z,4.63
2023-04-29T20:30:26.652Z,5.07
2023-04-29T20:32:53.806Z,3.55
2023-04-29T20:35:22.156Z,4.22
2023-04-29T20:37:49.585Z,3.72
2023-04-29T20:40:16.724Z,3.42
2023-04-29T20:42:44.135Z,4.55
2023-04-29T20:45:14.255Z,3.70
2023-04-29T20:47:41.786Z,4.28
2023-04-29T20:50:09.137Z,4.82
2023-04-29T20:52:36.649Z,4.25
2023-04-29T20:55:03.984Z,4.72
2023-04-29T20:57:32.640Z,4.78
2023-04-29T20:59:59.612Z,4.15
2023-04-29T21:02:26.558Z,5.10
2023-04-29T21:04:53.631Z,8.60
2023-04-29T21:07:20.485Z,5.38
2023-04-29T21:09:48.746Z,9.65
2023-04-29T21:12:15.889Z,5.20
2023-04-29T21:14:43.085Z,5.10
2023-04-29T21:17:10.097Z,4.47
2023-04-29T21:19:37.714Z,4.35
2023-04-29T21:22:04.964Z,5.63
2023-04-29T21:24:32.009Z,6.38
2023-04-29T21:26:58.865Z,5.38
2023-04-29T21:29:25.703Z,5.75
2023-04-29T21:31:52.717Z,5.05
2023-04-29T21:34:19.666Z,5.50
2023-04-29T21:36:46.525Z,4.93
2023-04-29T21:39:13.372Z,7.20
2023-04-29T21:41:42.879Z,5.05
2023-04-29T21:44:09.975Z,5.70
2023-04-29T21:46:37.450Z,6.15
2023-04-29T21:49:04.404Z,5.00
2023-04-29T21:51:31.947Z,5.57
2023-04-29T21:53:58.818Z,4.90
2023-04-29T21:56:25.780Z,6.25
2023-04-29T21:58:53.444Z,7.07
2023-04-29T22:01:46.311Z,9.57
2023-04-29T22:04:13.596Z,4.75
2023-04-29T22:06:40.687Z,6.80
2023-04-29T22:09:08.602Z,6.25
2023-04-29T22:11:35.751Z,5.43
2023-04-29T22:14:02.597Z,5.55
2023-04-29T22:16:29.676Z,4.40
2023-04-29T22:18:57.628Z,7.95
2023-04-29T22:21:24.679Z,6.10
2023-04-29T22:23:51.582Z,7.88
2023-04-29T22:26:18.738Z,7.03
2023-04-29T22:28:45.802Z,6.60
2023-04-29T22:31:12.619Z,7.28
2023-04-29T22:33:39.484Z,8.80
2023-04-29T22:36:06.770Z,6.60
2023-04-29T22:38:34.993Z,7.30
2023-04-29T22:41:02.017Z,5.63
2023-04-29T22:43:28.978Z,7.20
2023-04-29T22:45:56.603Z,7.80
2023-04-29T22:48:25.850Z,6.63
2023-04-29T22:50:59.550Z,6.25
2023-04-29T22:53:26.493Z,8.25
2023-04-29T22:55:56.312Z,6.68
2023-04-29T22:58:25.391Z,10.85
2023-04-29T23:00:55.990Z,7.60
2023-04-29T23:03:23.260Z,6.82
2023-04-29T23:05:50.300Z,7.72
2023-04-29T23:08:17.234Z,9.70
2023-04-29T23:10:49.488Z,8.27
2023-04-29T23:13:16.956Z,9.05
2023-04-29T23:15:44.583Z,6.43
2023-04-29T23:18:11.709Z,6.43
2023-04-29T23:20:38.732Z,6.00
2023-04-29T23:23:06.031Z,8.05
2023-04-29T23:25:32.906Z,7.05
2023-04-29T23:27:59.832Z,5.90
2023-04-29T23:30:26.777Z,7.38
2023-04-29T23:32:53.734Z,6.82
2023-04-29T23:35:21.268Z,6.60
2023-04-29T23:37:48.156Z,7.45
2023-04-29T23:40:16.069Z,6.80
2023-04-29T23:42:42.969Z,7.43
2023-04-29T23:45:10.124Z,6.18
2023-04-29T23:47:37.129Z,7.78
2023-04-29T23:50:04.563Z,8.93
2023-04-29T23:52:31.514Z,10.45
2023-04-29T23:54:58.632Z,7.63
2023-04-29T23:57:25.599Z,7.82
2023-04-29T23:59:53.006Z,8.18
